Time,TemperatureF,DewpointF,PressureIn,WindDirection,WindDirectionDegrees,WindSpeedMPH,WindSpeedGustMPH,Humidity,HourlyPrecipIn,Conditions,Clouds,dailyrainin,SoftwareType,DateUTC
2013-08-31 00:09:00,62.4,56.1,29.82,North,-999,0.0,0.0,80,0.00,,,-99.99,FreeWX-Wi 1.01,2013-08-31 07:09:00,
2013-08-31 00:19:00,62.2,55.9,29.82,North,-999,0.0,0.0,80,0.00,,,-99.99,FreeWX-Wi 1.01,2013-08-31 07:19:00,
2013-08-31 00:29:00,62.1,55.8,29.82,North,-999,0.0,0.0,80,0.00,,,-99.99,FreeWX-Wi 1.01,2013-08-31 07:29:00,
2013-08-31 00:39:00,62.1,56.1,29.82,North,-999,0.0,0.0,81,0.00,,,-99.99,FreeWX-Wi 1.01,2013-08-31 07:39:00,
2013-08-31 00:49:00,61.9,55.6,29.82,North,-999,0.0,0.0,80,0.00,,,-99.99,FreeWX-Wi 1.01,2013-08-31 07:49:00,
2013-08-31 00:59:00,61.9,55.6,29.82,North,-999,0.0,0.0,80,0.00,,,-99.99,FreeWX-Wi 1.01,2013-08-31 07:59:00,
2013-08-31 01:09:00,61.7,55.4,29.82,North,-999,0.0,0.0,80,0.00,,,-99.99,FreeWX-Wi 1.01,2013-08-31 08:09:00,
2013-08-31 01:19:00,61.7,55.8,29.82,North,-999,0.0,0.0,81,0.00,,,-99.99,FreeWX-Wi 1.01,2013-08-31 08:19:00,
2013-08-31 01:29:00,61.5,55.6,29.82,North,-999,0.0,0.0,81,0.00,,,-99.99,FreeWX-Wi 1.01,2013-08-31 08:29:00,
2013-08-31 01:39:00,61.3,55.4,29.82,North,-999,0.0,0.0,81,0.00,,,-99.99,FreeWX-Wi 1.01,2013-08-31 08:39:00,
2013-08-31 01:49:00,61.3,55.4,29.82,North,-999,0.0,0.0,81,0.00,,,-99.99,FreeWX-Wi 1.01,2013-08-31 08:49:00,
2013-08-31 01:59:00,61.2,55.2,29.82,North,-999,0.0,0.0,81,0.00,,,-99.99,FreeWX-Wi 1.01,2013-08-31 08:59:00,
2013-08-31 02:09:00,61.0,55.0,29.82,North,-999,0.0,0.0,81,0.00,,,-99.99,FreeWX-Wi 1.01,2013-08-31 09:09:00,
2013-08-31 02:19:00,60.8,54.9,29.82,North,-999,0.0,0.0,81,0.00,,,-99.99,FreeWX-Wi 1.01,2013-08-31 09:19:00,
2013-08-31 02:29:00,60.8,54.9,29.82,North,-999,0.0,0.0,81,0.00,,,-99.99,FreeWX-Wi 1.01,2013-08-31 09:29:00,
2013-08-31 02:39:00,60.8,55.2,29.82,North,-999,0.0,0.0,82,0.00,,,-99.99,FreeWX-Wi 1.01,2013-08-31 09:39:00,
2013-08-31 02:49:00,60.8,55.2,29.82,North,-999,0.0,0.0,82,0.00,,,-99.99,FreeWX-Wi 1.01,2013-08-31 09:49:00,
2013-08-31 02:59:00,60.6,55.0,29.82,North,-999,0.0,0.0,82,0.00,,,-99.99,FreeWX-Wi 1.01,2013-08-31 09:59:00,
2013-08-31 03:09:00,60.4,54.9,29.82,North,-999,0.0,0.0,82,0.00,,,-99.99,FreeWX-Wi 1.01,2013-08-31 10:09:00,
2013-08-31 03:19:00,60.3,54.7,29.82,North,-999,0.0,0.0,82,0.00,,,-99.99,FreeWX-Wi 1.01,2013-08-31 10:19:00,
2013-08-31 03:29:00,60.3,55.0,29.82,North,-999,0.0,0.0,83,0.00,,,-99.99,FreeWX-Wi 1.01,2013-08-31 10:29:00,
2013-08-31 03:39:00,60.1,54.5,29.82,North,-999,0.0,0.0,82,0.00,,,-99.99,FreeWX-Wi 1.01,2013-08-31 10:39:00,
2013-08-31 03:49:00,59.7,54.5,29.82,North,-999,0.0,0.0,83,0.00,,,-99.99,FreeWX-Wi 1.01,2013-08-31 10:49:00,
2013-08-31 03:59:00,59.7,54.5,29.82,North,-999,0.0,2.7,83,0.00,,,-99.99,FreeWX-Wi 1.01,2013-08-31 10:59:00,
2013-08-31 04:09:00,59.5,54.3,29.82,North,-999,0.0,2.2,83,0.00,,,-99.99,FreeWX-Wi 1.01,2013-08-31 11:09:00,
2013-08-31 04:19:00,59.5,54.7,29.82,North,-999,0.0,0.0,84,0.00,,,-99.99,FreeWX-Wi 1.01,2013-08-31 11:19:00,
2013-08-31 04:29:00,59.4,54.5,29.82,North,-999,0.0,0.0,84,0.00,,,-99.99,FreeWX-Wi 1.01,2013-08-31 11:29:00,
2013-08-31 04:39:00,59.2,55.0,29.82,North,-999,0.0,5.4,86,0.00,,,-99.99,FreeWX-Wi 1.01,2013-08-31 11:39:00,
2013-08-31 04:49:00,58.8,55.0,29.82,North,-999,0.0,0.0,87,0.00,,,-99.99,FreeWX-Wi 1.01,2013-08-31 11:49:00,
2013-08-31 05:00:00,58.8,55.2,29.82,NW,326,1.0,5.4,88,0.00,,,-99.99,FreeWX-Wi 1.01,2013-08-31 12:00:00,
2013-08-31 05:10:00,58.6,55.9,29.82,NNW,328,1.0,8.7,91,0.00,,,-99.99,FreeWX-Wi 1.01,2013-08-31 12:10:00,
2013-08-31 05:20:00,58.6,56.3,29.82,NNW,339,3.0,7.6,92,0.00,,,-99.99,FreeWX-Wi 1.01,2013-08-31 12:20:00,
2013-08-31 05:30:00,58.6,56.7,29.82,NNW,329,3.0,8.7,93,0.00,,,-99.99,FreeWX-Wi 1.01,2013-08-31 12:30:00,
2013-08-31 05:40:00,58.6,56.7,29.82,NW,312,2.0,5.8,93,0.00,,,-99.99,FreeWX-Wi 1.01,2013-08-31 12:40:00,
2013-08-31 05:50:00,58.5,56.7,29.82,West,280,2.0,4.0,94,0.00,,,-99.99,FreeWX-Wi 1.01,2013-08-31 12:50:00,
2013-08-31 06:00:00,58.6,56.8,29.82,WNW,297,1.0,6.3,94,0.00,,,-99.99,FreeWX-Wi 1.01,2013-08-31 13:00:00,
2013-08-31 06:10:00,58.6,56.8,29.82,NW,324,1.0,4.9,94,0.00,,,-99.99,FreeWX-Wi 1.01,2013-08-31 13:10:00,
2013-08-31 06:20:00,58.6,56.8,29.82,NNE,13,1.0,8.1,94,0.00,,,-99.99,FreeWX-Wi 1.01,2013-08-31 13:20:00,
2013-08-31 06:30:00,58.6,57.2,29.82,North,6,1.0,5.8,95,0.00,,,-99.99,FreeWX-Wi 1.01,2013-08-31 13:30:00,
2013-08-31 06:40:00,58.6,57.2,29.82,NW,312,2.0,7.6,95,0.00,,,-99.99,FreeWX-Wi 1.01,2013-08-31 13:40:00,
2013-08-31 06:50:00,58.6,57.2,29.82,NW,321,2.0,6.3,95,0.00,,,-99.99,FreeWX-Wi 1.01,2013-08-31 13:50:00,
2013-08-31 07:00:00,58.8,57.4,29.82,NW,315,2.0,5.4,95,0.00,,,-99.99,FreeWX-Wi 1.01,2013-08-31 14:00:00,
2013-08-31 07:10:00,59.0,57.6,29.85,NNW,327,2.0,7.6,95,0.00,,,-99.99,FreeWX-Wi 1.01,2013-08-31 14:10:00,
2013-08-31 07:20:00,59.0,57.9,29.85,NNW,332,3.0,6.7,96,0.00,,,-99.99,FreeWX-Wi 1.01,2013-08-31 14:20:00,
2013-08-31 07:30:00,59.2,58.1,29.85,NNW,330,3.0,6.3,96,0.00,,,-99.99,FreeWX-Wi 1.01,2013-08-31 14:30:00,
2013-08-31 07:40:00,59.2,58.1,29.85,NW,326,3.0,8.1,96,0.00,,,-99.99,FreeWX-Wi 1.01,2013-08-31 14:40:00,
2013-08-31 07:50:00,59.4,58.3,29.85,NW,322,2.0,4.9,96,0.00,,,-99.99,FreeWX-Wi 1.01,2013-08-31 14:50:00,
2013-08-31 08:00:00,59.4,58.3,29.85,NW,326,2.0,6.7,96,0.00,,,-99.99,FreeWX-Wi 1.01,2013-08-31 15:00:00,
2013-08-31 08:10:00,59.7,58.6,29.85,NW,325,2.0,5.4,96,0.00,,,-99.99,FreeWX-Wi 1.01,2013-08-31 15:10:00,
2013-08-31 08:20:00,60.1,59.2,29.85,NNW,337,2.0,5.4,97,0.00,,,-99.99,FreeWX-Wi 1.01,2013-08-31 15:20:00,
2013-08-31 08:30:00,60.3,59.2,29.85,NNW,335,1.0,6.3,96,0.00,,,-99.99,FreeWX-Wi 1.01,2013-08-31 15:30:00,
2013-08-31 08:40:00,61.2,59.7,29.85,NW,325,1.0,4.9,95,0.00,,,-99.99,FreeWX-Wi 1.01,2013-08-31 15:40:00,
2013-08-31 08:50:00,61.3,59.5,29.85,NW,312,1.0,5.8,94,0.00,,,-99.99,FreeWX-Wi 1.01,2013-08-31 15:50:00,
2013-08-31 09:00:00,61.9,58.3,29.85,NW,311,1.0,6.3,88,0.00,,,-99.99,FreeWX-Wi 1.01,2013-08-31 16:00:00,
2013-08-31 09:10:00,62.4,57.6,29.85,NNW,329,2.0,5.8,84,0.00,,,-99.99,FreeWX-Wi 1.01,2013-08-31 16:10:00,
2013-08-31 09:20:00,62.8,56.8,29.85,NNW,336,3.0,6.3,81,0.00,,,-99.99,FreeWX-Wi 1.01,2013-08-31 16:20:00,
2013-08-31 09:30:00,63.1,56.5,29.85,NNW,338,2.0,7.6,79,0.00,,,-99.99,FreeWX-Wi 1.01,2013-08-31 16:30:00,
2013-08-31 11:13:00,67.3,56.3,29.85,WNW,291,3.0,6.3,68,0.00,,,-99.99,FreeWX-Wi 1.01,2013-08-31 18:13:00,
2013-08-31 11:23:00,67.6,56.7,29.88,NW,319,4.0,10.1,68,0.00,,,-99.99,FreeWX-Wi 1.01,2013-08-31 18:23:00,
2013-08-31 11:33:00,68.7,58.1,29.85,NNW,337,4.0,8.7,69,0.00,,,-99.99,FreeWX-Wi 1.01,2013-08-31 18:33:00,
2013-08-31 11:43:00,68.9,56.7,29.85,NNW,344,4.0,8.1,65,0.00,,,-99.99,FreeWX-Wi 1.01,2013-08-31 18:43:00,
2013-08-31 11:53:00,69.6,56.5,29.85,NNW,333,3.0,6.3,63,0.00,,,-99.99,FreeWX-Wi 1.01,2013-08-31 18:53:00,
2013-08-31 12:03:00,69.1,56.3,29.85,NNW,329,3.0,8.1,64,0.00,,,-99.99,FreeWX-Wi 1.01,2013-08-31 19:03:00,
2013-08-31 12:13:00,68.7,56.8,29.85,NNW,338,3.0,10.1,66,0.00,,,-99.99,FreeWX-Wi 1.01,2013-08-31 19:13:00,
2013-08-31 12:23:00,69.4,55.8,29.85,NNE,17,3.0,6.3,62,0.00,,,-99.99,FreeWX-Wi 1.01,2013-08-31 19:23:00,
2013-08-31 12:33:00,70.3,55.8,29.85,NE,40,3.0,8.1,60,0.00,,,-99.99,FreeWX-Wi 1.01,2013-08-31 19:33:00,
2013-08-31 12:43:00,71.2,55.8,29.85,ESE,111,2.0,8.3,58,0.00,,,-99.99,FreeWX-Wi 1.01,2013-08-31 19:43:00,
2013-08-31 12:53:00,72.0,54.9,29.85,ESE,119,2.0,5.8,55,0.00,,,-99.99,FreeWX-Wi 1.01,2013-08-31 19:53:00,
2013-08-31 13:03:00,72.0,54.3,29.85,SE,124,3.0,11.9,54,0.00,,,-99.99,FreeWX-Wi 1.01,2013-08-31 20:03:00,
2013-08-31 13:13:00,71.1,54.5,29.85,East,79,3.0,8.7,56,0.00,,,-99.99,FreeWX-Wi 1.01,2013-08-31 20:13:00,
2013-08-31 13:23:00,70.7,55.6,29.85,North,356,4.0,8.1,59,0.00,,,-99.99,FreeWX-Wi 1.01,2013-08-31 20:23:00,
2013-08-31 13:33:00,71.1,55.6,29.85,NNE,14,4.0,9.6,58,0.00,,,-99.99,FreeWX-Wi 1.01,2013-08-31 20:33:00,
2013-08-31 13:43:00,70.9,55.4,29.85,North,1,4.0,9.2,58,0.00,,,-99.99,FreeWX-Wi 1.01,2013-08-31 20:43:00,
2013-08-31 13:53:00,71.8,55.2,29.85,North,4,4.0,11.0,56,0.00,,,-99.99,FreeWX-Wi 1.01,2013-08-31 20:53:00,
2013-08-31 14:03:00,71.6,54.5,29.85,North,352,4.0,8.3,55,0.00,,,-99.99,FreeWX-Wi 1.01,2013-08-31 21:03:00,
2013-08-31 14:13:00,71.2,55.8,29.85,North,8,4.0,10.1,58,0.00,,,-99.99,FreeWX-Wi 1.01,2013-08-31 21:13:00,
2013-08-31 14:23:00,71.2,54.7,29.82,North,1,4.0,8.7,56,0.00,,,-99.99,FreeWX-Wi 1.01,2013-08-31 21:23:00,
2013-08-31 14:33:00,70.5,55.4,29.82,North,352,5.0,14.5,59,0.00,,,-99.99,FreeWX-Wi 1.01,2013-08-31 21:33:00,
2013-08-31 14:43:00,70.7,55.6,29.82,NNW,330,6.0,12.8,59,0.00,,,-99.99,FreeWX-Wi 1.01,2013-08-31 21:43:00,
2013-08-31 14:53:00,70.5,55.4,29.82,NNW,327,5.0,10.5,59,0.00,,,-99.99,FreeWX-Wi 1.01,2013-08-31 21:53:00,
2013-08-31 15:03:00,70.0,55.4,29.82,NNW,329,5.0,10.5,60,0.00,,,-99.99,FreeWX-Wi 1.01,2013-08-31 22:03:00,
2013-08-31 15:13:00,69.3,55.8,29.82,NNW,335,5.0,11.0,62,0.00,,,-99.99,FreeWX-Wi 1.01,2013-08-31 22:13:00,
2013-08-31 15:23:00,68.7,56.1,29.82,NNW,334,6.0,12.3,64,0.00,,,-99.99,FreeWX-Wi 1.01,2013-08-31 22:23:00,
2013-08-31 15:33:00,68.7,56.5,29.82,NNW,344,5.0,11.9,65,0.00,,,-99.99,FreeWX-Wi 1.01,2013-08-31 22:33:00,
2013-08-31 15:43:00,68.5,56.3,29.82,North,351,5.0,10.1,65,0.00,,,-99.99,FreeWX-Wi 1.01,2013-08-31 22:43:00,
2013-08-31 15:53:00,68.5,56.3,29.82,North,6,4.0,10.5,65,0.00,,,-99.99,FreeWX-Wi 1.01,2013-08-31 22:53:00,
2013-08-31 16:03:00,68.4,56.1,29.82,North,2,4.0,12.3,65,0.00,,,-99.99,FreeWX-Wi 1.01,2013-08-31 23:03:00,
2013-08-31 16:13:00,68.5,56.7,29.82,North,359,4.0,8.1,66,0.00,,,-99.99,FreeWX-Wi 1.01,2013-08-31 23:13:00,
2013-08-31 16:23:00,68.5,56.7,29.82,North,353,4.0,9.2,66,0.00,,,-99.99,FreeWX-Wi 1.01,2013-08-31 23:23:00,
2013-08-31 16:33:00,68.5,56.7,29.79,NNW,345,4.0,6.3,66,0.00,,,-99.99,FreeWX-Wi 1.01,2013-08-31 23:33:00,
2013-08-31 16:43:00,68.5,56.7,29.79,NW,318,3.0,8.3,66,0.00,,,-99.99,FreeWX-Wi 1.01,2013-08-31 23:43:00,
2013-08-31 16:53:00,68.9,56.7,29.79,NNW,337,3.0,6.3,65,0.00,,,-99.99,FreeWX-Wi 1.01,2013-08-31 23:53:00,
2013-08-31 17:03:00,68.7,56.5,29.79,NW,317,3.0,9.2,65,0.00,,,-99.99,FreeWX-Wi 1.01,2013-09-01 00:03:00,
2013-08-31 17:13:00,68.4,56.5,29.79,WNW,300,3.0,8.7,66,0.00,,,-99.99,FreeWX-Wi 1.01,2013-09-01 00:13:00,
2013-08-31 17:23:00,68.4,56.5,29.79,NW,307,3.0,10.1,66,0.00,,,-99.99,FreeWX-Wi 1.01,2013-09-01 00:23:00,
2013-08-31 17:33:00,67.6,56.7,29.79,NW,308,3.0,10.1,68,0.00,,,-99.99,FreeWX-Wi 1.01,2013-09-01 00:33:00,
2013-08-31 17:43:00,67.3,56.8,29.79,NW,318,4.0,8.7,69,0.00,,,-99.99,FreeWX-Wi 1.01,2013-09-01 00:43:00,
2013-08-31 17:53:00,67.1,56.7,29.79,NNW,334,3.0,9.2,69,0.00,,,-99.99,FreeWX-Wi 1.01,2013-09-01 00:53:00,
2013-08-31 18:03:00,67.1,56.7,29.79,NNE,14,4.0,7.6,69,0.00,,,-99.99,FreeWX-Wi 1.01,2013-09-01 01:03:00,
2013-08-31 18:13:00,66.7,56.7,29.79,NE,51,3.0,8.3,70,0.00,,,-99.99,FreeWX-Wi 1.01,2013-09-01 01:13:00,
2013-08-31 18:23:00,66.0,56.7,29.79,NE,39,3.0,8.1,72,0.00,,,-99.99,FreeWX-Wi 1.01,2013-09-01 01:23:00,
2013-08-31 18:33:00,65.3,56.8,29.79,North,4,3.0,6.7,74,0.00,,,-99.99,FreeWX-Wi 1.01,2013-09-01 01:33:00,
2013-08-31 18:43:00,64.6,56.8,29.79,NNW,340,3.0,7.6,76,0.00,,,-99.99,FreeWX-Wi 1.01,2013-09-01 01:43:00,
2013-08-31 18:53:00,64.2,57.2,29.79,NNW,342,3.0,8.1,78,0.00,,,-99.99,FreeWX-Wi 1.01,2013-09-01 01:53:00,
2013-08-31 19:03:00,63.3,57.4,29.79,NNW,341,3.0,8.1,81,0.00,,,-99.99,FreeWX-Wi 1.01,2013-09-01 02:03:00,
2013-08-31 19:13:00,63.0,57.7,29.79,NNW,332,3.0,11.0,83,0.00,,,-99.99,FreeWX-Wi 1.01,2013-09-01 02:13:00,
2013-08-31 19:23:00,62.6,58.3,29.79,NW,321,3.0,8.7,86,0.00,,,-99.99,FreeWX-Wi 1.01,2013-09-01 02:23:00,
2013-08-31 19:33:00,62.2,58.3,29.79,NW,325,4.0,8.3,87,0.00,,,-99.99,FreeWX-Wi 1.01,2013-09-01 02:33:00,
2013-08-31 19:43:00,62.1,58.5,29.79,NNW,335,3.0,8.1,88,0.00,,,-99.99,FreeWX-Wi 1.01,2013-09-01 02:43:00,
2013-08-31 19:53:00,61.9,58.6,29.79,NNW,338,4.0,8.7,89,0.00,,,-99.99,FreeWX-Wi 1.01,2013-09-01 02:53:00,
2013-08-31 20:03:00,61.7,58.8,29.79,NNW,338,4.0,9.6,90,0.00,,,-99.99,FreeWX-Wi 1.01,2013-09-01 03:03:00,
2013-08-31 20:13:00,61.3,58.6,29.79,NNW,334,4.0,8.3,91,0.00,,,-99.99,FreeWX-Wi 1.01,2013-09-01 03:13:00,
2013-08-31 20:23:00,61.3,58.6,29.79,NNW,336,4.0,8.3,91,0.00,,,-99.99,FreeWX-Wi 1.01,2013-09-01 03:23:00,
2013-08-31 20:33:00,61.3,59.0,29.79,NNW,335,4.0,6.3,92,0.00,,,-99.99,FreeWX-Wi 1.01,2013-09-01 03:33:00,
2013-08-31 20:43:00,61.2,58.8,29.79,NNW,335,3.0,6.3,92,0.00,,,-99.99,FreeWX-Wi 1.01,2013-09-01 03:43:00,
2013-08-31 20:53:00,61.2,58.8,29.79,NNW,330,3.0,8.3,92,0.00,,,-99.99,FreeWX-Wi 1.01,2013-09-01 03:53:00,
2013-08-31 21:03:00,61.2,58.8,29.82,NNW,332,3.0,8.1,92,0.00,,,-99.99,FreeWX-Wi 1.01,2013-09-01 04:03:00,
2013-08-31 21:13:00,61.2,58.8,29.82,NNW,333,3.0,10.5,92,0.00,,,-99.99,FreeWX-Wi 1.01,2013-09-01 04:13:00,
2013-08-31 21:23:00,61.0,58.6,29.82,NNW,331,3.0,8.1,92,0.00,,,-99.99,FreeWX-Wi 1.01,2013-09-01 04:23:00,
2013-08-31 21:33:00,60.8,58.8,29.82,NNW,338,4.0,6.7,93,0.00,,,-99.99,FreeWX-Wi 1.01,2013-09-01 04:33:00,
2013-08-31 21:43:00,60.8,58.8,29.82,NNW,347,3.0,8.1,93,0.00,,,-99.99,FreeWX-Wi 1.01,2013-09-01 04:43:00,
2013-08-31 21:53:00,60.6,58.6,29.82,NNW,343,4.0,7.6,93,0.00,,,-99.99,FreeWX-Wi 1.01,2013-09-01 04:53:00,
2013-08-31 22:03:00,60.6,58.6,29.82,NNW,335,3.0,7.6,93,0.00,,,-99.99,FreeWX-Wi 1.01,2013-09-01 05:03:00,
2013-08-31 22:13:00,60.4,58.5,29.82,NW,326,3.0,8.1,93,0.00,,,-99.99,FreeWX-Wi 1.01,2013-09-01 05:13:00,
2013-08-31 22:23:00,60.4,58.5,29.82,NNW,328,3.0,7.6,93,0.00,,,-99.99,FreeWX-Wi 1.01,2013-09-01 05:23:00,
2013-08-31 22:33:00,60.4,58.5,29.82,NNW,332,3.0,8.1,93,0.00,,,-99.99,FreeWX-Wi 1.01,2013-09-01 05:33:00,
2013-08-31 22:43:00,60.3,58.3,29.82,NNW,332,3.0,5.8,93,0.00,,,-99.99,FreeWX-Wi 1.01,2013-09-01 05:43:00,
2013-08-31 22:53:00,60.4,58.5,29.82,NNW,337,3.0,7.2,93,0.00,,,-99.99,FreeWX-Wi 1.01,2013-09-01 05:53:00,
2013-08-31 23:03:00,60.4,58.5,29.82,North,5,2.0,7.2,93,0.00,,,-99.99,FreeWX-Wi 1.01,2013-09-01 06:03:00,
2013-08-31 23:13:00,60.3,57.9,29.82,North,355,2.0,8.1,92,0.00,,,-99.99,FreeWX-Wi 1.01,2013-09-01 06:13:00,
2013-08-31 23:23:00,60.4,58.1,29.82,North,353,2.0,7.6,92,0.00,,,-99.99,FreeWX-Wi 1.01,2013-09-01 06:23:00,
2013-08-31 23:33:00,60.4,58.1,29.82,NNW,339,2.0,8.3,92,0.00,,,-99.99,FreeWX-Wi 1.01,2013-09-01 06:33:00,
2013-08-31 23:43:00,60.4,58.1,29.82,NNW,343,2.0,8.3,92,0.00,,,-99.99,FreeWX-Wi 1.01,2013-09-01 06:43:00,
2013-08-31 23:53:00,60.4,58.1,29.82,NNW,340,2.0,7.6,92,0.00,,,-99.99,FreeWX-Wi 1.01,2013-09-01 06:53:00,